sensor_id;sensor_type;location;lat;lon;timestamp;P1;durP1;ratioP1;P2;durP2;ratioP2
54871;SDS011;43914;57.680;11.982;2023-07-31T00:02:04;6.20;;;1.60;;
54871;SDS011;43914;57.680;11.982;2023-07-31T00:04:30;5.80;;;1.40;;
54871;SDS011;43914;57.680;11.982;2023-07-31T00:06:55;6.60;;;1.60;;
54871;SDS011;43914;57.680;11.982;2023-07-31T00:09:20;7.90;;;1.60;;
54871;SDS011;43914;57.680;11.982;2023-07-31T00:11:46;6.70;;;1.60;;
54871;SDS011;43914;57.680;11.982;2023-07-31T00:14:11;5.90;;;1.70;;
54871;SDS011;43914;57.680;11.982;2023-07-31T00:16:37;5.00;;;1.40;;
54871;SDS011;43914;57.680;11.982;2023-07-31T00:19:02;5.60;;;1.60;;
54871;SDS011;43914;57.680;11.982;2023-07-31T00:21:28;6.20;;;1.60;;
54871;SDS011;43914;57.680;11.982;2023-07-31T00:23:53;5.30;;;1.60;;
54871;SDS011;43914;57.680;11.982;2023-07-31T00:26:19;6.20;;;1.60;;
54871;SDS011;43914;57.680;11.982;2023-07-31T00:28:44;6.10;;;1.70;;
54871;SDS011;43914;57.680;11.982;2023-07-31T00:31:10;7.40;;;1.50;;
54871;SDS011;43914;57.680;11.982;2023-07-31T00:33:35;6.80;;;1.60;;
54871;SDS011;43914;57.680;11.982;2023-07-31T00:36:01;6.60;;;1.40;;
54871;SDS011;43914;57.680;11.982;2023-07-31T00:38:27;5.30;;;1.40;;
54871;SDS011;43914;57.680;11.982;2023-07-31T00:40:53;6.20;;;1.40;;
54871;SDS011;43914;57.680;11.982;2023-07-31T00:43:18;5.60;;;1.80;;
54871;SDS011;43914;57.680;11.982;2023-07-31T00:45:44;6.30;;;1.50;;
54871;SDS011;43914;57.680;11.982;2023-07-31T00:48:11;6.30;;;1.40;;
54871;SDS011;43914;57.680;11.982;2023-07-31T00:50:36;5.50;;;1.60;;
54871;SDS011;43914;57.680;11.982;2023-07-31T00:53:03;5.60;;;1.70;;
54871;SDS011;43914;57.680;11.982;2023-07-31T00:55:28;6.20;;;1.30;;
54871;SDS011;43914;57.680;11.982;2023-07-31T00:57:55;4.60;;;1.30;;
54871;SDS011;43914;57.680;11.982;2023-07-31T01:00:21;4.60;;;1.40;;
54871;SDS011;43914;57.680;11.982;2023-07-31T01:02:47;5.80;;;1.60;;
54871;SDS011;43914;57.680;11.982;2023-07-31T01:05:14;4.90;;;1.30;;
54871;SDS011;43914;57.680;11.982;2023-07-31T01:07:56;5.00;;;1.40;;
54871;SDS011;43914;57.680;11.982;2023-07-31T01:10:46;5.70;;;1.30;;
54871;SDS011;43914;57.680;11.982;2023-07-31T01:13:16;5.40;;;1.40;;
54871;SDS011;43914;57.680;11.982;2023-07-31T01:15:43;5.70;;;1.50;;
54871;SDS011;43914;57.680;11.982;2023-07-31T01:18:09;4.90;;;1.50;;
54871;SDS011;43914;57.680;11.982;2023-07-31T01:20:34;5.20;;;1.40;;
54871;SDS011;43914;57.680;11.982;2023-07-31T01:31:22;4.80;;;1.40;;
54871;SDS011;43914;57.680;11.982;2023-07-31T01:33:50;5.80;;;1.40;;
54871;SDS011;43914;57.680;11.982;2023-07-31T01:36:19;5.60;;;1.40;;
54871;SDS011;43914;57.680;11.982;2023-07-31T01:38:46;6.00;;;1.70;;
54871;SDS011;43914;57.680;11.982;2023-07-31T01:41:11;6.00;;;1.70;;
54871;SDS011;43914;57.680;11.982;2023-07-31T01:43:37;5.10;;;1.50;;
54871;SDS011;43914;57.680;11.982;2023-07-31T01:46:02;5.10;;;1.60;;
54871;SDS011;43914;57.680;11.982;2023-07-31T01:48:27;5.70;;;1.50;;
54871;SDS011;43914;57.680;11.982;2023-07-31T01:50:53;5.50;;;1.80;;
54871;SDS011;43914;57.680;11.982;2023-07-31T01:53:18;5.70;;;1.70;;
54871;SDS011;43914;57.680;11.982;2023-07-31T01:55:44;5.70;;;1.50;;
54871;SDS011;43914;57.680;11.982;2023-07-31T01:58:09;5.20;;;1.40;;
54871;SDS011;43914;57.680;11.982;2023-07-31T02:00:35;5.90;;;1.40;;
54871;SDS011;43914;57.680;11.982;2023-07-31T02:03:00;5.40;;;1.70;;
54871;SDS011;43914;57.680;11.982;2023-07-31T02:05:26;6.10;;;1.70;;
54871;SDS011;43914;57.680;11.982;2023-07-31T02:07:51;5.50;;;1.40;;
54871;SDS011;43914;57.680;11.982;2023-07-31T02:10:17;5.70;;;1.60;;
54871;SDS011;43914;57.680;11.982;2023-07-31T02:12:42;5.60;;;1.60;;
54871;SDS011;43914;57.680;11.982;2023-07-31T02:15:08;5.00;;;1.50;;
54871;SDS011;43914;57.680;11.982;2023-07-31T02:17:34;7.60;;;1.70;;
54871;SDS011;43914;57.680;11.982;2023-07-31T02:19:59;6.30;;;1.70;;
54871;SDS011;43914;57.680;11.982;2023-07-31T02:22:25;6.60;;;1.80;;
54871;SDS011;43914;57.680;11.982;2023-07-31T02:24:50;7.30;;;1.80;;
54871;SDS011;43914;57.680;11.982;2023-07-31T02:27:16;5.80;;;1.60;;
54871;SDS011;43914;57.680;11.982;2023-07-31T02:29:41;6.50;;;1.60;;
54871;SDS011;43914;57.680;11.982;2023-07-31T02:32:07;5.80;;;1.40;;
54871;SDS011;43914;57.680;11.982;2023-07-31T02:34:32;7.90;;;2.10;;
54871;SDS011;43914;57.680;11.982;2023-07-31T02:36:58;5.90;;;1.60;;
54871;SDS011;43914;57.680;11.982;2023-07-31T02:39:23;5.60;;;1.60;;
54871;SDS011;43914;57.680;11.982;2023-07-31T02:41:49;6.40;;;1.60;;
54871;SDS011;43914;57.680;11.982;2023-07-31T02:44:14;7.60;;;1.70;;
54871;SDS011;43914;57.680;11.982;2023-07-31T02:46:40;6.00;;;1.40;;
54871;SDS011;43914;57.680;11.982;2023-07-31T02:49:05;7.10;;;1.60;;
54871;SDS011;43914;57.680;11.982;2023-07-31T02:51:31;7.30;;;1.90;;
54871;SDS011;43914;57.680;11.982;2023-07-31T02:53:56;8.40;;;2.00;;
54871;SDS011;43914;57.680;11.982;2023-07-31T02:56:23;8.90;;;1.70;;
54871;SDS011;43914;57.680;11.982;2023-07-31T02:58:48;9.40;;;1.90;;
54871;SDS011;43914;57.680;11.982;2023-07-31T03:01:14;6.00;;;1.60;;
54871;SDS011;43914;57.680;11.982;2023-07-31T03:03:40;8.60;;;1.90;;
54871;SDS011;43914;57.680;11.982;2023-07-31T03:06:06;7.00;;;1.90;;
54871;SDS011;43914;57.680;11.982;2023-07-31T03:08:32;6.10;;;1.60;;
54871;SDS011;43914;57.680;11.982;2023-07-31T03:10:57;7.50;;;1.90;;
54871;SDS011;43914;57.680;11.982;2023-07-31T03:13:23;6.30;;;1.90;;
54871;SDS011;43914;57.680;11.982;2023-07-31T03:15:48;6.90;;;1.70;;
54871;SDS011;43914;57.680;11.982;2023-07-31T03:18:14;5.50;;;1.60;;
54871;SDS011;43914;57.680;11.982;2023-07-31T03:20:45;6.80;;;1.80;;
54871;SDS011;43914;57.680;11.982;2023-07-31T03:23:10;7.80;;;1.50;;
54871;SDS011;43914;57.680;11.982;2023-07-31T03:25:36;7.50;;;1.80;;
54871;SDS011;43914;57.680;11.982;2023-07-31T03:28:02;6.40;;;1.90;;
54871;SDS011;43914;57.680;11.982;2023-07-31T03:30:28;7.70;;;1.80;;
54871;SDS011;43914;57.680;11.982;2023-07-31T03:32:53;6.60;;;1.80;;
54871;SDS011;43914;57.680;11.982;2023-07-31T03:35:19;9.60;;;1.90;;
54871;SDS011;43914;57.680;11.982;2023-07-31T03:37:44;7.30;;;1.70;;
54871;SDS011;43914;57.680;11.982;2023-07-31T03:40:10;7.00;;;1.70;;
54871;SDS011;43914;57.680;11.982;2023-07-31T03:42:36;7.90;;;1.80;;
54871;SDS011;43914;57.680;11.982;2023-07-31T03:45:01;11.00;;;1.90;;
54871;SDS011;43914;57.680;11.982;2023-07-31T03:47:27;7.60;;;2.00;;
54871;SDS011;43914;57.680;11.982;2023-07-31T03:49:52;8.90;;;2.10;;
54871;SDS011;43914;57.680;11.982;2023-07-31T03:52:18;8.00;;;2.10;;
54871;SDS011;43914;57.680;11.982;2023-07-31T03:54:43;6.80;;;2.10;;
54871;SDS011;43914;57.680;11.982;2023-07-31T03:57:10;8.60;;;1.90;;
54871;SDS011;43914;57.680;11.982;2023-07-31T03:59:36;7.00;;;1.90;;
54871;SDS011;43914;57.680;11.982;2023-07-31T04:02:04;6.30;;;2.00;;
54871;SDS011;43914;57.680;11.982;2023-07-31T04:04:29;7.80;;;2.00;;
54871;SDS011;43914;57.680;11.982;2023-07-31T04:06:55;6.20;;;2.00;;
54871;SDS011;43914;57.680;11.982;2023-07-31T04:09:20;6.90;;;1.80;;
54871;SDS011;43914;57.680;11.982;2023-07-31T04:11:46;8.20;;;2.20;;
54871;SDS011;43914;57.680;11.982;2023-07-31T04:14:11;6.80;;;2.10;;
54871;SDS011;43914;57.680;11.982;2023-07-31T04:16:37;7.70;;;2.30;;
54871;SDS011;43914;57.680;11.982;2023-07-31T04:19:03;7.90;;;2.20;;
54871;SDS011;43914;57.680;11.982;2023-07-31T04:21:29;8.70;;;2.30;;
54871;SDS011;43914;57.680;11.982;2023-07-31T04:23:54;8.30;;;2.30;;
54871;SDS011;43914;57.680;11.982;2023-07-31T04:26:21;9.60;;;2.30;;
54871;SDS011;43914;57.680;11.982;2023-07-31T04:28:47;7.50;;;2.40;;
54871;SDS011;43914;57.680;11.982;2023-07-31T04:31:12;10.30;;;3.40;;
54871;SDS011;43914;57.680;11.982;2023-07-31T04:33:38;10.60;;;2.40;;
54871;SDS011;43914;57.680;11.982;2023-07-31T04:36:04;8.10;;;2.40;;
54871;SDS011;43914;57.680;11.982;2023-07-31T04:38:30;10.10;;;2.40;;
54871;SDS011;43914;57.680;11.982;2023-07-31T04:40:55;8.40;;;2.40;;
54871;SDS011;43914;57.680;11.982;2023-07-31T04:43:20;6.30;;;2.10;;
54871;SDS011;43914;57.680;11.982;2023-07-31T04:45:46;12.40;;;2.60;;
54871;SDS011;43914;57.680;11.982;2023-07-31T04:48:13;10.50;;;2.30;;
54871;SDS011;43914;57.680;11.982;2023-07-31T04:50:39;8.40;;;2.70;;
54871;SDS011;43914;57.680;11.982;2023-07-31T04:53:04;11.70;;;2.60;;
54871;SDS011;43914;57.680;11.982;2023-07-31T04:55:30;10.20;;;2.50;;
54871;SDS011;43914;57.680;11.982;2023-07-31T04:57:55;10.50;;;2.60;;
54871;SDS011;43914;57.680;11.982;2023-07-31T05:00:21;10.20;;;2.10;;
54871;SDS011;43914;57.680;11.982;2023-07-31T05:02:46;10.80;;;2.30;;
54871;SDS011;43914;57.680;11.982;2023-07-31T05:05:12;8.20;;;2.20;;
54871;SDS011;43914;57.680;11.982;2023-07-31T05:07:37;10.30;;;2.10;;
54871;SDS011;43914;57.680;11.982;2023-07-31T05:10:03;9.00;;;2.50;;
54871;SDS011;43914;57.680;11.982;2023-07-31T05:12:29;7.90;;;2.30;;
54871;SDS011;43914;57.680;11.982;2023-07-31T05:14:54;8.80;;;2.20;;
54871;SDS011;43914;57.680;11.982;2023-07-31T05:17:20;9.10;;;2.20;;
54871;SDS011;43914;57.680;11.982;2023-07-31T05:19:45;8.20;;;2.50;;
54871;SDS011;43914;57.680;11.982;2023-07-31T05:22:11;10.70;;;2.20;;
54871;SDS011;43914;57.680;11.982;2023-07-31T05:24:36;7.60;;;2.30;;
54871;SDS011;43914;57.680;11.982;2023-07-31T05:27:01;9.10;;;2.30;;
54871;SDS011;43914;57.680;11.982;2023-07-31T05:29:27;12.70;;;2.30;;
54871;SDS011;43914;57.680;11.982;2023-07-31T05:31:53;9.50;;;2.20;;
54871;SDS011;43914;57.680;11.982;2023-07-31T05:34:18;10.20;;;2.20;;
54871;SDS011;43914;57.680;11.982;2023-07-31T05:36:44;10.00;;;2.30;;
54871;SDS011;43914;57.680;11.982;2023-07-31T05:39:09;10.30;;;2.40;;
54871;SDS011;43914;57.680;11.982;2023-07-31T05:41:35;9.90;;;2.50;;
54871;SDS011;43914;57.680;11.982;2023-07-31T05:44:01;10.20;;;2.20;;
54871;SDS011;43914;57.680;11.982;2023-07-31T05:46:26;9.20;;;2.40;;
54871;SDS011;43914;57.680;11.982;2023-07-31T05:48:52;11.90;;;2.40;;
54871;SDS011;43914;57.680;11.982;2023-07-31T05:51:18;9.90;;;2.10;;
54871;SDS011;43914;57.680;11.982;2023-07-31T05:53:43;9.30;;;2.10;;
54871;SDS011;43914;57.680;11.982;2023-07-31T05:56:11;8.70;;;2.30;;
54871;SDS011;43914;57.680;11.982;2023-07-31T05:58:37;9.50;;;2.00;;
54871;SDS011;43914;57.680;11.982;2023-07-31T06:01:04;10.40;;;2.00;;
54871;SDS011;43914;57.680;11.982;2023-07-31T06:03:29;8.50;;;1.90;;
54871;SDS011;43914;57.680;11.982;2023-07-31T06:05:57;10.50;;;2.00;;
54871;SDS011;43914;57.680;11.982;2023-07-31T06:08:23;6.50;;;1.90;;
54871;SDS011;43914;57.680;11.982;2023-07-31T06:10:48;9.40;;;2.10;;
54871;SDS011;43914;57.680;11.982;2023-07-31T06:13:14;11.40;;;2.00;;
54871;SDS011;43914;57.680;11.982;2023-07-31T06:15:39;10.10;;;1.90;;
54871;SDS011;43914;57.680;11.982;2023-07-31T06:18:05;10.30;;;2.10;;
54871;SDS011;43914;57.680;11.982;2023-07-31T06:20:33;7.30;;;1.80;;
54871;SDS011;43914;57.680;11.982;2023-07-31T06:22:59;11.30;;;2.30;;
54871;SDS011;43914;57.680;11.982;2023-07-31T06:25:25;12.40;;;2.10;;
54871;SDS011;43914;57.680;11.982;2023-07-31T06:27:51;10.20;;;2.20;;
54871;SDS011;43914;57.680;11.982;2023-07-31T06:30:16;11.30;;;1.80;;
54871;SDS011;43914;57.680;11.982;2023-07-31T06:32:42;11.90;;;1.80;;
54871;SDS011;43914;57.680;11.982;2023-07-31T06:35:08;9.90;;;1.90;;
54871;SDS011;43914;57.680;11.982;2023-07-31T06:37:34;13.10;;;2.80;;
54871;SDS011;43914;57.680;11.982;2023-07-31T06:39:59;9.10;;;2.10;;
54871;SDS011;43914;57.680;11.982;2023-07-31T06:42:25;8.10;;;1.60;;
54871;SDS011;43914;57.680;11.982;2023-07-31T06:44:50;9.10;;;1.90;;
54871;SDS011;43914;57.680;11.982;2023-07-31T06:47:16;9.90;;;1.80;;
54871;SDS011;43914;57.680;11.982;2023-07-31T06:49:41;8.50;;;1.80;;
54871;SDS011;43914;57.680;11.982;2023-07-31T06:52:07;11.10;;;2.00;;
54871;SDS011;43914;57.680;11.982;2023-07-31T06:54:32;5.80;;;1.60;;
54871;SDS011;43914;57.680;11.982;2023-07-31T06:56:58;11.90;;;2.30;;
54871;SDS011;43914;57.680;11.982;2023-07-31T06:59:24;6.50;;;1.80;;
54871;SDS011;43914;57.680;11.982;2023-07-31T07:01:49;7.60;;;1.90;;
54871;SDS011;43914;57.680;11.982;2023-07-31T07:04:15;8.90;;;2.50;;
54871;SDS011;43914;57.680;11.982;2023-07-31T07:06:41;10.70;;;2.50;;
54871;SDS011;43914;57.680;11.982;2023-07-31T07:09:07;10.30;;;2.00;;
54871;SDS011;43914;57.680;11.982;2023-07-31T07:11:33;11.00;;;2.30;;
54871;SDS011;43914;57.680;11.982;2023-07-31T07:14:02;8.00;;;1.70;;
54871;SDS011;43914;57.680;11.982;2023-07-31T07:16:28;8.90;;;2.00;;
54871;SDS011;43914;57.680;11.982;2023-07-31T07:18:54;9.50;;;2.10;;
54871;SDS011;43914;57.680;11.982;2023-07-31T07:21:20;11.80;;;2.50;;
54871;SDS011;43914;57.680;11.982;2023-07-31T07:23:45;8.80;;;2.00;;
54871;SDS011;43914;57.680;11.982;2023-07-31T07:26:11;8.40;;;2.50;;
54871;SDS011;43914;57.680;11.982;2023-07-31T07:28:36;9.70;;;1.90;;
54871;SDS011;43914;57.680;11.982;2023-07-31T07:31:02;10.10;;;2.00;;
54871;SDS011;43914;57.680;11.982;2023-07-31T07:33:29;10.30;;;2.10;;
54871;SDS011;43914;57.680;11.982;2023-07-31T07:35:54;10.70;;;2.10;;
54871;SDS011;43914;57.680;11.982;2023-07-31T07:38:20;9.50;;;2.00;;
54871;SDS011;43914;57.680;11.982;2023-07-31T07:40:45;11.10;;;2.10;;
54871;SDS011;43914;57.680;11.982;2023-07-31T07:43:15;11.30;;;2.20;;
54871;SDS011;43914;57.680;11.982;2023-07-31T07:45:41;10.90;;;2.10;;
54871;SDS011;43914;57.680;11.982;2023-07-31T07:48:07;11.10;;;2.20;;
54871;SDS011;43914;57.680;11.982;2023-07-31T07:50:32;8.00;;;1.90;;
54871;SDS011;43914;57.680;11.982;2023-07-31T07:52:58;8.10;;;2.50;;
54871;SDS011;43914;57.680;11.982;2023-07-31T07:55:23;9.50;;;2.10;;
54871;SDS011;43914;57.680;11.982;2023-07-31T07:57:49;11.00;;;2.20;;
54871;SDS011;43914;57.680;11.982;2023-07-31T08:03:00;6.60;;;1.80;;
54871;SDS011;43914;57.680;11.982;2023-07-31T08:05:26;7.80;;;1.50;;
54871;SDS011;43914;57.680;11.982;2023-07-31T08:07:51;9.40;;;2.50;;
54871;SDS011;43914;57.680;11.982;2023-07-31T08:10:17;7.80;;;1.70;;
54871;SDS011;43914;57.680;11.982;2023-07-31T08:12:42;9.50;;;1.80;;
54871;SDS011;43914;57.680;11.982;2023-07-31T08:15:08;7.70;;;1.80;;
54871;SDS011;43914;57.680;11.982;2023-07-31T08:17:33;10.30;;;1.80;;
54871;SDS011;43914;57.680;11.982;2023-07-31T08:19:59;10.60;;;2.40;;
54871;SDS011;43914;57.680;11.982;2023-07-31T08:22:25;9.30;;;2.00;;
54871;SDS011;43914;57.680;11.982;2023-07-31T08:24:50;7.70;;;1.60;;
54871;SDS011;43914;57.680;11.982;2023-07-31T08:27:16;8.00;;;1.80;;
54871;SDS011;43914;57.680;11.982;2023-07-31T08:29:41;7.70;;;1.60;;
54871;SDS011;43914;57.680;11.982;2023-07-31T08:32:07;6.40;;;1.30;;
54871;SDS011;43914;57.680;11.982;2023-07-31T08:34:32;5.50;;;1.30;;
54871;SDS011;43914;57.680;11.982;2023-07-31T08:36:58;6.90;;;1.30;;
54871;SDS011;43914;57.680;11.982;2023-07-31T08:39:23;7.80;;;1.80;;
54871;SDS011;43914;57.680;11.982;2023-07-31T08:41:49;7.80;;;1.30;;
54871;SDS011;43914;57.680;11.982;2023-07-31T08:44:14;5.70;;;1.10;;
54871;SDS011;43914;57.680;11.982;2023-07-31T08:46:42;3.30;;;1.00;;
54871;SDS011;43914;57.680;11.982;2023-07-31T08:49:08;4.50;;;1.00;;
54871;SDS011;43914;57.680;11.982;2023-07-31T08:51:36;5.40;;;1.00;;
54871;SDS011;43914;57.680;11.982;2023-07-31T08:54:01;7.70;;;1.80;;
54871;SDS011;43914;57.680;11.982;2023-07-31T08:56:30;6.60;;;1.20;;
54871;SDS011;43914;57.680;11.982;2023-07-31T08:59:03;7.40;;;1.40;;
54871;SDS011;43914;57.680;11.982;2023-07-31T09:01:30;5.60;;;1.40;;
54871;SDS011;43914;57.680;11.982;2023-07-31T09:03:59;5.20;;;1.20;;
54871;SDS011;43914;57.680;11.982;2023-07-31T09:06:27;3.50;;;1.30;;
54871;SDS011;43914;57.680;11.982;2023-07-31T09:08:55;5.10;;;1.00;;
54871;SDS011;43914;57.680;11.982;2023-07-31T09:11:21;4.50;;;1.00;;
54871;SDS011;43914;57.680;11.982;2023-07-31T09:13:47;4.80;;;1.00;;
54871;SDS011;43914;57.680;11.982;2023-07-31T09:16:14;5.70;;;1.10;;
54871;SDS011;43914;57.680;11.982;2023-07-31T09:18:52;6.90;;;1.60;;
54871;SDS011;43914;57.680;11.982;2023-07-31T09:21:20;6.00;;;1.30;;
54871;SDS011;43914;57.680;11.982;2023-07-31T09:23:46;3.90;;;1.00;;
54871;SDS011;43914;57.680;11.982;2023-07-31T09:26:39;4.40;;;1.10;;
54871;SDS011;43914;57.680;11.982;2023-07-31T09:29:05;5.30;;;1.30;;
54871;SDS011;43914;57.680;11.982;2023-07-31T09:31:39;4.10;;;1.00;;
54871;SDS011;43914;57.680;11.982;2023-07-31T09:34:10;4.50;;;1.10;;
54871;SDS011;43914;57.680;11.982;2023-07-31T09:36:42;4.70;;;1.00;;
54871;SDS011;43914;57.680;11.982;2023-07-31T09:39:10;3.40;;;0.90;;
54871;SDS011;43914;57.680;11.982;2023-07-31T09:41:37;4.50;;;1.00;;
54871;SDS011;43914;57.680;11.982;2023-07-31T09:44:10;5.70;;;1.00;;
54871;SDS011;43914;57.680;11.982;2023-07-31T09:46:35;5.80;;;1.10;;
54871;SDS011;43914;57.680;11.982;2023-07-31T09:49:11;5.20;;;1.00;;
54871;SDS011;43914;57.680;11.982;2023-07-31T09:51:38;3.30;;;0.70;;
54871;SDS011;43914;57.680;11.982;2023-07-31T09:54:11;3.60;;;0.90;;
54871;SDS011;43914;57.680;11.982;2023-07-31T09:56:44;3.70;;;0.90;;
54871;SDS011;43914;57.680;11.982;2023-07-31T09:59:12;4.40;;;1.00;;
54871;SDS011;43914;57.680;11.982;2023-07-31T10:01:40;4.60;;;1.00;;
54871;SDS011;43914;57.680;11.982;2023-07-31T10:04:10;5.10;;;1.00;;
54871;SDS011;43914;57.680;11.982;2023-07-31T10:06:37;5.90;;;1.10;;
54871;SDS011;43914;57.680;11.982;2023-07-31T10:09:08;4.60;;;0.90;;
54871;SDS011;43914;57.680;11.982;2023-07-31T10:11:43;3.80;;;0.80;;
54871;SDS011;43914;57.680;11.982;2023-07-31T10:14:17;4.00;;;1.00;;
54871;SDS011;43914;57.680;11.982;2023-07-31T10:16:44;4.80;;;0.90;;
54871;SDS011;43914;57.680;11.982;2023-07-31T10:19:10;4.80;;;1.00;;
54871;SDS011;43914;57.680;11.982;2023-07-31T10:21:36;5.00;;;0.90;;
54871;SDS011;43914;57.680;11.982;2023-07-31T10:24:03;4.40;;;1.00;;
54871;SDS011;43914;57.680;11.982;2023-07-31T10:26:31;4.70;;;1.10;;
54871;SDS011;43914;57.680;11.982;2023-07-31T10:29:00;4.70;;;1.00;;
54871;SDS011;43914;57.680;11.982;2023-07-31T10:31:27;7.60;;;1.30;;
54871;SDS011;43914;57.680;11.982;2023-07-31T10:33:53;4.00;;;0.90;;
54871;SDS011;43914;57.680;11.982;2023-07-31T10:36:21;5.80;;;0.90;;
54871;SDS011;43914;57.680;11.982;2023-07-31T10:38:49;4.80;;;0.90;;
54871;SDS011;43914;57.680;11.982;2023-07-31T10:41:16;4.60;;;1.10;;
54871;SDS011;43914;57.680;11.982;2023-07-31T10:43:42;6.20;;;1.00;;
54871;SDS011;43914;57.680;11.982;2023-07-31T10:46:08;5.40;;;1.20;;
54871;SDS011;43914;57.680;11.982;2023-07-31T10:48:34;6.00;;;0.90;;
54871;SDS011;43914;57.680;11.982;2023-07-31T10:51:02;4.00;;;0.90;;
54871;SDS011;43914;57.680;11.982;2023-07-31T10:53:36;4.50;;;1.00;;
54871;SDS011;43914;57.680;11.982;2023-07-31T10:56:04;4.50;;;0.90;;
54871;SDS011;43914;57.680;11.982;2023-07-31T10:58:31;6.20;;;1.00;;
54871;SDS011;43914;57.680;11.982;2023-07-31T11:00:59;8.10;;;1.20;;
54871;SDS011;43914;57.680;11.982;2023-07-31T11:03:27;4.20;;;0.80;;
54871;SDS011;43914;57.680;11.982;2023-07-31T11:06:17;4.20;;;0.80;;
54871;SDS011;43914;57.680;11.982;2023-07-31T11:08:44;4.80;;;1.10;;
54871;SDS011;43914;57.680;11.982;2023-07-31T11:11:12;2.60;;;0.70;;
54871;SDS011;43914;57.680;11.982;2023-07-31T11:16:10;4.70;;;0.90;;
54871;SDS011;43914;57.680;11.982;2023-07-31T11:18:39;5.00;;;1.30;;
54871;SDS011;43914;57.680;11.982;2023-07-31T11:21:07;4.20;;;1.00;;
54871;SDS011;43914;57.680;11.982;2023-07-31T11:23:36;4.60;;;0.90;;
54871;SDS011;43914;57.680;11.982;2023-07-31T11:26:02;3.70;;;0.90;;
54871;SDS011;43914;57.680;11.982;2023-07-31T11:28:31;5.90;;;0.90;;
54871;SDS011;43914;57.680;11.982;2023-07-31T11:30:58;4.90;;;1.00;;
54871;SDS011;43914;57.680;11.982;2023-07-31T11:33:24;3.70;;;0.70;;
54871;SDS011;43914;57.680;11.982;2023-07-31T11:35:50;4.40;;;0.90;;
54871;SDS011;43914;57.680;11.982;2023-07-31T11:38:23;3.30;;;1.00;;
54871;SDS011;43914;57.680;11.982;2023-07-31T11:41:00;4.50;;;0.80;;
54871;SDS011;43914;57.680;11.982;2023-07-31T11:43:30;4.00;;;0.80;;
54871;SDS011;43914;57.680;11.982;2023-07-31T11:45:57;4.40;;;1.00;;
54871;SDS011;43914;57.680;11.982;2023-07-31T11:48:28;3.50;;;0.80;;
54871;SDS011;43914;57.680;11.982;2023-07-31T11:51:04;5.20;;;1.00;;
54871;SDS011;43914;57.680;11.982;2023-07-31T11:53:38;5.50;;;1.00;;
54871;SDS011;43914;57.680;11.982;2023-07-31T11:56:09;5.40;;;1.00;;
54871;SDS011;43914;57.680;11.982;2023-07-31T11:58:38;3.20;;;0.70;;
54871;SDS011;43914;57.680;11.982;2023-07-31T12:01:09;2.60;;;0.70;;
54871;SDS011;43914;57.680;11.982;2023-07-31T12:03:36;4.80;;;0.90;;
54871;SDS011;43914;57.680;11.982;2023-07-31T12:06:03;3.40;;;0.70;;
54871;SDS011;43914;57.680;11.982;2023-07-31T12:08:30;7.00;;;1.00;;
54871;SDS011;43914;57.680;11.982;2023-07-31T12:11:03;4.80;;;0.80;;
54871;SDS011;43914;57.680;11.982;2023-07-31T12:13:30;3.80;;;0.80;;
54871;SDS011;43914;57.680;11.982;2023-07-31T12:15:58;4.10;;;0.80;;
54871;SDS011;43914;57.680;11.982;2023-07-31T12:18:26;7.10;;;1.00;;
54871;SDS011;43914;57.680;11.982;2023-07-31T12:20:56;5.70;;;0.90;;
54871;SDS011;43914;57.680;11.982;2023-07-31T12:31:09;6.30;;;0.90;;
54871;SDS011;43914;57.680;11.982;2023-07-31T12:33:37;5.70;;;1.10;;
54871;SDS011;43914;57.680;11.982;2023-07-31T12:36:06;4.60;;;0.90;;
54871;SDS011;43914;57.680;11.982;2023-07-31T12:38:33;5.90;;;0.90;;
54871;SDS011;43914;57.680;11.982;2023-07-31T12:40:59;5.70;;;1.00;;
54871;SDS011;43914;57.680;11.982;2023-07-31T12:43:24;5.10;;;0.90;;
54871;SDS011;43914;57.680;11.982;2023-07-31T12:45:50;6.40;;;1.10;;
54871;SDS011;43914;57.680;11.982;2023-07-31T12:48:16;7.90;;;1.30;;
54871;SDS011;43914;57.680;11.982;2023-07-31T12:50:44;6.40;;;1.10;;
54871;SDS011;43914;57.680;11.982;2023-07-31T12:53:09;5.60;;;1.10;;
54871;SDS011;43914;57.680;11.982;2023-07-31T12:55:35;8.40;;;1.10;;
54871;SDS011;43914;57.680;11.982;2023-07-31T12:58:02;5.80;;;1.10;;
54871;SDS011;43914;57.680;11.982;2023-07-31T13:00:28;7.00;;;1.10;;
54871;SDS011;43914;57.680;11.982;2023-07-31T13:02:54;7.80;;;1.20;;
54871;SDS011;43914;57.680;11.982;2023-07-31T13:05:19;7.60;;;1.10;;
54871;SDS011;43914;57.680;11.982;2023-07-31T13:07:45;5.50;;;1.20;;
54871;SDS011;43914;57.680;11.982;2023-07-31T13:10:11;6.00;;;1.00;;
54871;SDS011;43914;57.680;11.982;2023-07-31T13:12:37;5.90;;;1.40;;
54871;SDS011;43914;57.680;11.982;2023-07-31T13:15:03;5.20;;;1.10;;
54871;SDS011;43914;57.680;11.982;2023-07-31T13:17:30;5.60;;;1.10;;
54871;SDS011;43914;57.680;11.982;2023-07-31T13:19:56;6.80;;;1.20;;
54871;SDS011;43914;57.680;11.982;2023-07-31T13:22:21;7.20;;;1.10;;
54871;SDS011;43914;57.680;11.982;2023-07-31T13:24:47;4.90;;;1.10;;
54871;SDS011;43914;57.680;11.982;2023-07-31T13:27:13;6.10;;;1.00;;
54871;SDS011;43914;57.680;11.982;2023-07-31T13:29:42;6.80;;;1.10;;
54871;SDS011;43914;57.680;11.982;2023-07-31T13:32:07;6.70;;;1.20;;
54871;SDS011;43914;57.680;11.982;2023-07-31T13:34:33;4.90;;;1.20;;
54871;SDS011;43914;57.680;11.982;2023-07-31T13:36:58;6.70;;;1.10;;
54871;SDS011;43914;57.680;11.982;2023-07-31T13:39:24;5.50;;;1.20;;
54871;SDS011;43914;57.680;11.982;2023-07-31T13:41:49;5.70;;;1.20;;
54871;SDS011;43914;57.680;11.982;2023-07-31T13:44:15;8.20;;;1.30;;
54871;SDS011;43914;57.680;11.982;2023-07-31T13:46:41;6.30;;;1.30;;
54871;SDS011;43914;57.680;11.982;2023-07-31T13:49:06;10.10;;;1.20;;
54871;SDS011;43914;57.680;11.982;2023-07-31T13:51:32;7.00;;;1.30;;
54871;SDS011;43914;57.680;11.982;2023-07-31T13:53:58;5.70;;;1.20;;
54871;SDS011;43914;57.680;11.982;2023-07-31T13:56:23;5.10;;;1.10;;
54871;SDS011;43914;57.680;11.982;2023-07-31T13:58:49;7.20;;;1.30;;
54871;SDS011;43914;57.680;11.982;2023-07-31T14:01:14;7.60;;;1.30;;
54871;SDS011;43914;57.680;11.982;2023-07-31T14:03:41;6.40;;;1.10;;
54871;SDS011;43914;57.680;11.982;2023-07-31T14:06:06;8.70;;;1.50;;
54871;SDS011;43914;57.680;11.982;2023-07-31T14:08:32;8.40;;;1.60;;
54871;SDS011;43914;57.680;11.982;2023-07-31T14:10:57;8.30;;;1.30;;
54871;SDS011;43914;57.680;11.982;2023-07-31T14:13:23;8.70;;;1.50;;
54871;SDS011;43914;57.680;11.982;2023-07-31T14:15:48;8.50;;;1.30;;
54871;SDS011;43914;57.680;11.982;2023-07-31T14:18:14;7.70;;;1.30;;
54871;SDS011;43914;57.680;11.982;2023-07-31T14:20:39;7.90;;;1.50;;
54871;SDS011;43914;57.680;11.982;2023-07-31T14:23:05;7.60;;;1.80;;
54871;SDS011;43914;57.680;11.982;2023-07-31T14:25:30;6.60;;;1.10;;
54871;SDS011;43914;57.680;11.982;2023-07-31T14:27:56;6.70;;;1.40;;
54871;SDS011;43914;57.680;11.982;2023-07-31T14:30:21;7.00;;;1.50;;
54871;SDS011;43914;57.680;11.982;2023-07-31T14:32:46;8.10;;;1.40;;
54871;SDS011;43914;57.680;11.982;2023-07-31T14:35:12;6.80;;;1.40;;
54871;SDS011;43914;57.680;11.982;2023-07-31T14:37:41;5.90;;;1.30;;
54871;SDS011;43914;57.680;11.982;2023-07-31T14:40:09;6.60;;;1.20;;
54871;SDS011;43914;57.680;11.982;2023-07-31T14:42:39;7.90;;;1.60;;
54871;SDS011;43914;57.680;11.982;2023-07-31T14:45:06;7.30;;;1.40;;
54871;SDS011;43914;57.680;11.982;2023-07-31T14:47:33;7.10;;;1.30;;
54871;SDS011;43914;57.680;11.982;2023-07-31T14:49:59;7.50;;;1.60;;
54871;SDS011;43914;57.680;11.982;2023-07-31T14:52:25;11.30;;;1.90;;